Time;durP1;ratioP1;P1;durP2;ratioP2;P2;SDS_P1;SDS_P2;PMS_P1;PMS_P2;Temp;Humidity;BMP_temperature;BMP_pressure;BME280_temperature;BME280_humidity;BME280_pressure;Samples;Min_cycle;Max_cycle;Signal;HPM_P1;HPM_P2
2023/04/06 00:00:54;;;;;;;5.22;3.45;;;;;;;12.86;61.60;101784.44;5009746;28;20042;-52
2023/04/06 00:03:19;;;;;;;5.43;3.97;;;;;;;12.86;61.25;101784.44;5006082;28;20033;-53
2023/04/06 00:05:47;;;;;;;4.93;3.83;;;;;;;12.85;61.43;101780.06;5005492;28;20038;-52
2023/04/06 00:08:12;;;;;;;3.50;3.00;;;;;;;12.86;61.36;101775.56;5005571;28;21064;-52
2023/04/06 00:10:38;;;;;;;3.95;3.50;;;;;;;12.84;61.35;101772.97;5007389;28;20065;-52
2023/04/06 00:13:03;;;;;;;4.47;3.83;;;;;;;12.85;61.09;101774.72;5005286;28;20065;-52
2023/04/06 00:15:29;;;;;;;4.32;3.50;;;;;;;12.84;61.60;101772.97;5008585;28;20030;-53
2023/04/06 00:17:55;;;;;;;4.45;3.60;;;;;;;12.85;61.28;101772.03;5004661;28;20046;-52
2023/04/06 00:20:20;;;;;;;4.53;3.85;;;;;;;12.84;61.56;101770.31;5005394;28;20034;-53
2023/04/06 00:22:46;;;;;;;7.90;3.58;;;;;;;12.85;61.65;101768.50;5005147;28;20032;-52
2023/04/06 00:25:11;;;;;;;5.05;3.88;;;;;;;12.84;61.13;101766.78;5004307;28;20044;-52
2023/04/06 00:27:39;;;;;;;4.68;3.10;;;;;;;12.84;61.41;101767.63;5004785;28;20057;-52
2023/04/06 00:30:05;;;;;;;4.95;4.20;;;;;;;12.85;61.24;101763.16;5004751;28;20117;-51
2023/04/06 00:32:31;;;;;;;4.40;3.42;;;;;;;12.83;61.21;101752.56;5004562;28;20122;-52
2023/04/06 00:34:58;;;;;;;4.60;3.63;;;;;;;12.83;61.56;101757.03;5004808;28;20108;-52
2023/04/06 00:37:23;;;;;;;3.83;2.97;;;;;;;12.83;61.11;101755.25;5005077;28;20121;-53
2023/04/06 00:39:51;;;;;;;4.68;3.47;;;;;;;12.82;61.17;101748.16;5003606;28;20106;-53
2023/04/06 00:42:17;;;;;;;4.18;3.35;;;;;;;12.82;61.50;101750.84;5006015;28;20046;-53
2023/04/06 00:44:43;;;;;;;3.97;3.22;;;;;;;12.81;61.24;101746.47;5006982;28;20033;-51
2023/04/06 00:47:09;;;;;;;4.22;3.50;;;;;;;12.81;61.39;101738.44;5009973;28;20034;-51
2023/04/06 00:49:35;;;;;;;3.58;3.05;;;;;;;12.81;61.41;101741.13;5005596;28;20080;-53
2023/04/06 00:52:01;;;;;;;3.92;3.50;;;;;;;12.80;61.34;101738.53;5003517;28;20042;-53
2023/04/06 00:54:27;;;;;;;3.55;3.17;;;;;;;12.80;61.56;101735.84;5004214;28;20042;-52
2023/04/06 00:56:53;;;;;;;4.93;3.53;;;;;;;12.80;61.61;101738.53;5004786;28;20061;-53
2023/04/06 00:59:19;;;;;;;4.88;3.45;;;;;;;12.80;61.02;101731.38;5004326;28;20167;-52
2023/04/06 01:01:44;;;;;;;3.60;3.13;;;;;;;12.80;61.25;101727.84;5004426;28;20451;-52
2023/04/06 01:04:10;;;;;;;4.70;3.67;;;;;;;12.79;61.33;101732.28;5006595;28;20030;-52
2023/04/06 01:06:35;;;;;;;4.63;3.70;;;;;;;12.79;61.06;101723.44;5004213;28;20467;-53
2023/04/06 01:09:00;;;;;;;4.32;3.63;;;;;;;12.79;61.39;101713.59;5004215;28;20045;-52
2023/04/06 01:11:26;;;;;;;4.53;3.63;;;;;;;12.78;60.99;101719.91;5004510;28;20029;-52
2023/04/06 01:13:52;;;;;;;6.75;3.67;;;;;;;12.78;61.17;101722.56;5004967;28;20117;-52
2023/04/06 01:16:18;;;;;;;4.03;3.40;;;;;;;12.77;61.13;101707.47;5004296;28;20034;-52
2023/04/06 01:18:43;;;;;;;4.10;2.88;;;;;;;12.77;61.43;101720.84;5005525;28;20506;-52
2023/04/06 01:21:15;;;;;;;4.05;3.42;;;;;;;12.77;61.34;101707.47;5003815;28;20033;-51
2023/04/06 01:23:46;;;;;;;3.63;3.05;;;;;;;12.77;60.98;101710.16;5003808;28;20034;-51
2023/04/06 01:26:12;;;;;;;;;;;;;;;12.91;60.97;101714.69;5004044;28;20061;-49
2023/04/06 01:28:38;;;;;;;4.20;3.38;;;;;;;12.80;60.75;101712.66;5003972;28;20282;-50
2023/04/06 01:31:06;;;;;;;3.38;3.08;;;;;;;12.78;61.13;101703.88;5003657;28;20160;-51
2023/04/06 01:33:31;;;;;;;4.35;3.10;;;;;;;12.77;61.04;101695.94;5006622;28;20034;-50
2023/04/06 01:35:57;;;;;;;3.35;2.72;;;;;;;12.77;61.21;101690.59;5004226;28;20093;-51
2023/04/06 01:38:22;;;;;;;3.80;3.30;;;;;;;12.77;61.04;101698.59;5004001;28;20034;-52
2023/04/06 01:40:48;;;;;;;4.40;3.22;;;;;;;12.77;61.09;101701.28;5003577;28;20073;-52
2023/04/06 01:43:13;;;;;;;4.32;3.67;;;;;;;12.76;61.11;101692.41;5003559;28;20038;-52
2023/04/06 01:45:39;;;;;;;4.47;3.10;;;;;;;12.76;61.02;101702.25;5003781;28;20117;-52
2023/04/06 01:48:04;;;;;;;4.25;3.15;;;;;;;12.74;60.81;101686.31;5003421;28;20030;-53
2023/04/06 01:50:30;;;;;;;5.35;3.28;;;;;;;12.74;61.25;101691.66;5006295;28;20049;-53
2023/04/06 01:52:55;;;;;;;5.00;3.47;;;;;;;12.74;61.08;101686.31;5003633;28;20046;-53
2023/04/06 01:55:21;;;;;;;4.05;3.38;;;;;;;12.73;60.97;101687.25;5003550;28;20045;-51
2023/04/06 01:57:46;;;;;;;3.97;3.13;;;;;;;12.73;60.87;101681.91;5003380;28;20124;-51
2023/04/06 02:00:12;;;;;;;4.32;3.40;;;;;;;12.73;60.97;101679.22;5003351;28;20161;-51
2023/04/06 02:02:38;;;;;;;3.75;3.20;;;;;;;12.73;61.01;101673.88;5003129;28;20503;-52
2023/04/06 02:05:03;;;;;;;4.05;3.30;;;;;;;12.71;60.79;101668.63;5003272;28;20034;-52
2023/04/06 02:07:29;;;;;;;3.50;3.03;;;;;;;12.71;60.82;101670.44;5003390;28;20042;-51
2023/04/06 02:09:55;;;;;;;5.47;3.67;;;;;;;12.72;61.18;101664.16;5003559;28;20035;-52
2023/04/06 02:12:21;;;;;;;3.40;2.90;;;;;;;12.71;60.86;101665.09;5003572;28;20423;-52
2023/04/06 02:14:47;;;;;;;3.85;3.17;;;;;;;12.70;61.20;101658.06;5003169;28;20040;-52
2023/04/06 02:17:12;;;;;;;3.67;3.00;;;;;;;12.70;60.82;101656.22;5003319;28;20060;-52
2023/04/06 02:19:37;;;;;;;3.45;3.10;;;;;;;12.69;61.28;101654.50;5002485;28;20034;-52
2023/04/06 02:22:03;;;;;;;4.45;3.55;;;;;;;12.70;61.11;101652.72;5003138;28;20490;-50
2023/04/06 02:24:28;;;;;;;4.43;2.80;;;;;;;12.70;61.00;101647.38;5003307;28;20038;-48
2023/04/06 02:26:53;;;;;;;4.03;3.00;;;;;;;12.70;60.90;101645.53;5008612;28;20081;-50
2023/04/06 02:29:20;;;;;;;3.65;2.75;;;;;;;12.70;60.78;101647.38;5003126;28;20038;-51
2023/04/06 02:31:45;;;;;;;3.92;3.50;;;;;;;12.69;61.05;101642.97;5002946;28;20039;-50
2023/04/06 02:34:11;;;;;;;4.15;2.90;;;;;;;12.69;60.82;101642.97;5003395;28;20041;-50
2023/04/06 02:36:37;;;;;;;3.95;2.80;;;;;;;12.69;60.93;101646.47;5003064;28;20030;-50
2023/04/06 02:39:03;;;;;;;3.55;3.17;;;;;;;12.69;60.71;101637.63;5001966;28;20048;-50
2023/04/06 02:41:28;;;;;;;3.28;2.65;;;;;;;12.69;60.64;101630.44;5003539;28;20019;-49
2023/04/06 02:43:54;;;;;;;3.67;3.05;;;;;;;12.68;61.15;101633.25;5003060;28;20117;-49
2023/04/06 02:46:19;;;;;;;3.50;3.03;;;;;;;12.69;60.87;101624.25;5002984;28;20382;-49
2023/04/06 02:48:45;;;;;;;3.85;2.75;;;;;;;12.68;60.46;101628.75;5003171;28;20160;-49
2023/04/06 02:51:10;;;;;;;4.75;3.60;;;;;;;12.68;60.94;101625.22;5002835;28;20360;-51
2023/04/06 02:53:36;;;;;;;3.78;2.80;;;;;;;12.67;60.71;101626.16;5002864;28;20120;-52
2023/04/06 02:56:01;;;;;;;5.13;3.80;;;;;;;12.66;60.66;101617.28;5002817;28;20556;-52
2023/04/06 02:58:27;;;;;;;3.33;3.03;;;;;;;12.66;61.05;101619.97;5002783;28;20044;-51
2023/04/06 03:00:52;;;;;;;3.50;3.20;;;;;;;12.66;60.64;101616.41;5002285;28;20141;-52
2023/04/06 03:03:17;;;;;;;4.05;3.25;;;;;;;12.65;60.68;101612.88;5006037;28;20030;-52
2023/04/06 03:05:43;;;;;;;3.45;3.15;;;;;;;12.66;60.96;101611.94;5002721;28;20137;-52
2023/04/06 03:08:08;;;;;;;3.22;2.92;;;;;;;12.66;60.67;101608.41;5006261;28;20061;-53
2023/04/06 03:10:34;;;;;;;3.83;3.30;;;;;;;12.65;60.90;101612.88;5004645;28;20034;-51
2023/04/06 03:12:59;;;;;;;5.20;3.83;;;;;;;12.66;60.83;101608.41;5002602;28;20030;-53
2023/04/06 03:15:25;;;;;;;4.78;3.53;;;;;;;12.65;60.81;101606.69;5003797;28;20046;-52
2023/04/06 03:17:50;;;;;;;3.75;3.38;;;;;;;12.65;60.78;101612.03;5005828;28;20475;-52
2023/04/06 03:20:15;;;;;;;3.67;3.17;;;;;;;12.65;60.81;101614.72;5005615;28;20479;-52
2023/04/06 03:22:41;;;;;;;4.50;3.45;;;;;;;12.65;60.68;101602.19;5005791;28;20125;-52
2023/04/06 03:25:06;;;;;;;3.72;3.30;;;;;;;12.63;60.80;101604.09;5005342;28;20064;-51
2023/04/06 03:27:32;;;;;;;4.22;3.40;;;;;;;12.64;60.60;101604.97;5008352;28;20033;-52
2023/04/06 03:29:58;;;;;;;3.60;3.13;;;;;;;12.63;60.49;101598.75;5005871;28;20121;-52
2023/04/06 03:32:23;;;;;;;4.82;3.92;;;;;;;12.64;60.37;101594.28;5005215;28;20041;-52
2023/04/06 03:34:48;;;;;;;4.75;3.55;;;;;;;12.64;60.75;101599.63;5004441;28;20038;-51
2023/04/06 03:37:14;;;;;;;4.03;3.40;;;;;;;12.63;60.62;101592.56;5005316;28;20035;-52
2023/04/06 03:39:40;;;;;;;3.42;3.13;;;;;;;12.63;60.82;101597.91;5005081;28;20053;-50
2023/04/06 03:42:05;;;;;;;4.07;3.33;;;;;;;12.63;60.93;101592.56;5005480;28;20034;-51
2023/04/06 03:44:31;;;;;;;4.18;3.15;;;;;;;12.62;60.37;101598.84;5005677;28;20384;-51
2023/04/06 03:46:57;;;;;;;5.57;3.65;;;;;;;12.62;60.75;101588.16;5005817;28;20041;-51
2023/04/06 03:49:22;;;;;;;5.00;3.65;;;;;;;12.62;60.56;101590.84;5005040;28;20030;-49
2023/04/06 03:51:47;;;;;;;3.45;3.15;;;;;;;12.61;60.39;101594.47;5004819;28;20435;-50
2023/04/06 03:54:13;;;;;;;3.92;3.53;;;;;;;12.62;60.54;101594.38;5004611;28;20407;-46
2023/04/06 03:56:38;;;;;;;5.13;3.72;;;;;;;12.62;60.31;101585.50;5004825;28;20026;-50
2023/04/06 03:59:04;;;;;;;5.95;4.18;;;;;;;12.61;60.66;101589.97;5005154;28;20058;-50
2023/04/06 04:01:29;;;;;;;4.47;3.63;;;;;;;12.59;60.60;101583.88;5011036;28;20038;-49
2023/04/06 04:03:55;;;;;;;4.70;3.20;;;;;;;12.61;60.51;101586.47;5004735;28;20041;-50
2023/04/06 04:06:20;;;;;;;4.10;3.45;;;;;;;12.60;60.26;101588.25;5004696;28;20144;-50
2023/04/06 04:08:46;;;;;;;3.83;3.08;;;;;;;12.60;60.66;101595.41;5008089;28;20037;-50
2023/04/06 04:11:11;;;;;;;4.00;2.92;;;;;;;12.60;60.51;101590.06;5004381;28;20113;-50
2023/04/06 04:13:37;;;;;;;3.72;2.92;;;;;;;12.60;60.64;101593.59;5004631;28;20099;-51
2023/04/06 04:16:02;;;;;;;3.97;3.47;;;;;;;12.59;60.78;101585.69;5005009;28;20026;-50
2023/04/06 04:18:27;;;;;;;3.80;3.15;;;;;;;12.59;60.79;101591.88;5004499;28;20038;-50
2023/04/06 04:20:53;;;;;;;3.42;3.03;;;;;;;12.59;60.51;101585.69;5004469;28;20457;-51
2023/04/06 04:23:18;;;;;;;4.18;3.60;;;;;;;12.59;60.37;101585.69;5004484;28;20040;-49
2023/04/06 04:25:44;;;;;;;4.43;3.90;;;;;;;12.57;60.33;101585.78;5004062;28;20108;-50
2023/04/06 04:28:09;;;;;;;3.75;3.33;;;;;;;12.58;60.27;101586.63;5010911;28;20065;-50
2023/04/06 04:30:35;;;;;;;4.72;3.60;;;;;;;12.58;60.52;101581.28;5005864;28;20069;-50
2023/04/06 04:33:00;;;;;;;4.55;3.42;;;;;;;12.57;60.14;101580.44;5004954;28;20034;-51
2023/04/06 04:35:26;;;;;;;4.60;3.67;;;;;;;12.56;60.53;101586.72;5002668;28;20031;-51
2023/04/06 04:37:52;;;;;;;4.28;3.60;;;;;;;12.57;60.54;101582.25;5004088;28;20042;-49
2023/04/06 04:40:17;;;;;;;4.55;3.60;;;;;;;12.57;60.53;101582.25;5003898;28;20076;-50
2023/04/06 04:42:42;;;;;;;3.75;3.38;;;;;;;12.57;60.50;101576.91;5004098;28;20542;-49
2023/04/06 04:45:08;;;;;;;4.93;3.83;;;;;;;12.56;60.57;101577.84;5007509;28;20030;-50
2023/04/06 04:47:34;;;;;;;4.00;3.30;;;;;;;12.56;60.27;101580.53;5007675;28;20068;-50
2023/04/06 04:49:59;;;;;;;5.43;3.95;;;;;;;12.56;60.11;101577.84;5004064;28;20041;-50
2023/04/06 04:52:25;;;;;;;4.13;3.17;;;;;;;12.56;59.96;101580.53;5003616;28;20049;-51
2023/04/06 04:54:50;;;;;;;5.72;4.18;;;;;;;12.55;60.13;101577.00;5002623;28;20041;-50
2023/04/06 04:57:15;;;;;;;6.18;4.20;;;;;;;12.54;60.15;101577.94;5010404;28;20029;-49
2023/04/06 04:59:42;;;;;;;4.43;3.38;;;;;;;12.55;60.21;101574.34;5010423;28;20041;-51
2023/04/06 05:02:08;;;;;;;4.40;3.38;;;;;;;12.54;60.37;101567.25;5003722;28;20479;-49
2023/04/06 05:04:33;;;;;;;3.72;3.25;;;;;;;12.55;60.27;101573.47;5004398;28;20072;-50
2023/04/06 05:07:05;;;;;;;4.50;3.97;;;;;;;12.52;60.30;101570.03;5007251;28;20479;-50
2023/04/06 05:09:31;;;;;;;4.30;3.40;;;;;;;12.54;60.42;101577.94;5003990;28;20049;-51
2023/04/06 05:11:58;;;;;;;5.40;4.00;;;;;;;12.52;60.46;101570.03;5003426;28;20034;-53
2023/04/06 05:14:23;;;;;;;5.50;3.67;;;;;;;12.54;60.29;101574.44;5006257;28;20041;-52
2023/04/06 05:16:49;;;;;;;3.92;3.40;;;;;;;12.53;60.38;101576.25;5006855;28;20037;-51
2023/04/06 05:19:14;;;;;;;3.75;3.35;;;;;;;12.55;60.26;101570.81;5003382;28;20029;-53
2023/04/06 05:21:40;;;;;;;5.70;3.60;;;;;;;12.51;60.22;101571.00;5004208;28;20091;-50
2023/04/06 05:24:05;;;;;;;4.43;3.55;;;;;;;12.52;60.33;101575.34;5002400;28;20032;-52
2023/04/06 05:26:31;;;;;;;4.22;3.50;;;;;;;12.53;60.36;101570.91;5010255;28;20038;-53
2023/04/06 05:28:56;;;;;;;4.80;3.78;;;;;;;12.53;60.14;101573.56;5003274;28;20080;-51
2023/04/06 05:31:22;;;;;;;4.63;3.10;;;;;;;12.51;60.30;101567.47;5004865;28;20115;-51
2023/04/06 05:33:47;;;;;;;5.00;3.28;;;;;;;12.51;60.39;101571.00;5006449;28;20391;-51
2023/04/06 05:36:13;;;;;;;4.18;3.45;;;;;;;12.51;60.39;101567.47;5002901;28;20120;-53
2023/04/06 05:38:38;;;;;;;3.67;3.20;;;;;;;12.50;60.34;101566.59;5002581;28;20113;-51
2023/04/06 05:41:04;;;;;;;5.13;3.80;;;;;;;12.50;60.12;101560.38;5003561;28;20064;-53
2023/04/06 05:43:29;;;;;;;3.78;3.38;;;;;;;12.50;60.17;101565.72;5003073;28;20423;-52
2023/04/06 05:45:55;;;;;;;4.07;3.42;;;;;;;12.50;60.46;101566.59;5002896;28;20038;-52
2023/04/06 05:48:20;;;;;;;4.18;3.40;;;;;;;12.48;60.26;101563.16;5002872;28;20033;-53
2023/04/06 05:50:50;;;;;;;4.43;3.38;;;;;;;12.49;60.12;101564.88;5004246;28;20161;-52
2023/04/06 05:53:16;;;;;;;3.97;3.40;;;;;;;12.49;60.09;101567.56;5006224;28;20081;-53
2023/04/06 05:55:41;;;;;;;4.80;3.63;;;;;;;12.49;60.30;101558.69;5003355;28;20104;-53
2023/04/06 05:58:06;;;;;;;3.72;3.33;;;;;;;12.49;60.37;101564.03;5006468;28;20120;-53
2023/04/06 06:00:32;;;;;;;4.20;3.42;;;;;;;12.48;59.93;101563.16;5003323;28;20441;-52
2023/04/06 06:02:57;;;;;;;5.25;4.13;;;;;;;12.48;60.01;101564.97;5006525;28;20033;-52
2023/04/06 06:05:23;;;;;;;5.13;3.72;;;;;;;12.47;60.35;101561.44;5008361;28;20026;-52
2023/04/06 06:07:48;;;;;;;3.63;3.03;;;;;;;12.47;59.86;101556.09;5009732;28;20391;-52
2023/04/06 06:10:14;;;;;;;5.13;3.88;;;;;;;12.48;60.15;101557.81;5014574;28;20542;-53
2023/04/06 06:12:39;;;;;;;5.22;3.58;;;;;;;12.48;60.22;101567.63;5009636;28;20044;-52
2023/04/06 06:15:06;;;;;;;4.35;3.20;;;;;;;12.47;60.17;101561.44;5010372;28;20058;-53
2023/04/06 06:17:31;;;;;;;5.30;4.28;;;;;;;12.47;59.86;101569.47;5010003;28;20034;-52
2023/04/06 06:19:56;;;;;;;3.90;3.47;;;;;;;12.47;59.99;101572.13;5008901;28;20360;-52
2023/04/06 06:22:22;;;;;;;6.00;3.75;;;;;;;12.47;59.82;101574.81;5008747;28;20029;-52
2023/04/06 06:24:47;;;;;;;3.78;3.33;;;;;;;12.46;59.92;101570.41;5009824;28;20037;-52
2023/04/06 06:27:13;;;;;;;4.25;3.63;;;;;;;12.47;60.18;101573.91;5010027;28;20041;-53
2023/04/06 06:29:38;;;;;;;3.90;3.25;;;;;;;12.46;59.79;101573.06;5010488;28;20028;-53
2023/04/06 06:32:04;;;;;;;4.40;3.30;;;;;;;12.47;59.84;101566.78;5003348;28;20361;-52
2023/04/06 06:34:29;;;;;;;4.78;3.72;;;;;;;12.46;60.26;101564.19;5002100;28;20038;-53
2023/04/06 06:36:55;;;;;;;4.30;3.50;;;;;;;12.46;60.07;101570.41;5002779;28;20117;-51
2023/04/06 06:39:21;;;;;;;4.50;3.33;;;;;;;12.47;60.09;101573.91;5002493;28;20031;-50
2023/04/06 06:41:46;;;;;;;4.22;3.40;;;;;;;12.46;60.09;101575.75;5002527;28;20034;-52
2023/04/06 06:44:12;;;;;;;5.57;3.47;;;;;;;12.46;60.16;101577.56;5004991;28;20077;-51
2023/04/06 06:46:37;;;;;;;3.58;3.28;;;;;;;12.45;60.35;101568.69;5006533;28;20036;-50
2023/04/06 06:49:03;;;;;;;3.72;3.22;;;;;;;12.45;60.21;101576.72;5010099;28;20030;-52
2023/04/06 06:51:28;;;;;;;4.50;3.47;;;;;;;12.45;59.95;101568.69;5004828;28;20058;-52
2023/04/06 06:53:54;;;;;;;5.07;3.50;;;;;;;12.47;60.43;101565.91;5008274;28;20057;-55
2023/04/06 06:56:19;;;;;;;6.38;4.38;;;;;;;12.48;60.68;101567.63;5001657;28;20030;-52
2023/04/06 06:58:45;;;;;;;7.65;5.40;;;;;;;12.50;61.14;101568.41;5004725;28;20431;-53
2023/04/06 07:01:10;;;;;;;6.93;5.38;;;;;;;12.51;60.71;101568.31;5009904;28;20030;-51
2023/04/06 07:03:36;;;;;;;8.93;5.53;;;;;;;12.51;60.68;101564.78;5012936;28;20383;-53
2023/04/06 07:06:01;;;;;;;7.80;5.57;;;;;;;12.51;60.57;101568.31;5005866;28;20698;-53
2023/04/06 07:08:26;;;;;;;7.85;5.45;;;;;;;12.52;60.79;101563.81;5004540;28;20071;-54
2023/04/06 07:10:53;;;;;;;11.20;6.45;;;;;;;12.52;60.56;101564.69;5009487;28;20034;-52
2023/04/06 07:13:22;;;;;;;14.80;6.93;;;;;;;12.52;60.38;101566.50;5005462;28;20034;-53
2023/04/06 07:15:48;;;;;;;10.25;6.28;;;;;;;12.52;60.52;101564.69;5004234;28;20431;-53
2023/04/06 07:18:14;;;;;;;13.93;6.72;;;;;;;12.52;60.27;101559.34;5004480;28;20062;-52
2023/04/06 07:20:39;;;;;;;8.15;6.32;;;;;;;12.52;60.24;101558.47;5005014;28;20367;-54
2023/04/06 07:23:05;;;;;;;9.18;6.47;;;;;;;12.54;60.35;101555.72;5004823;28;20037;-51
2023/04/06 07:25:30;;;;;;;11.10;7.05;;;;;;;12.54;60.16;101555.72;5004251;28;20029;-50
2023/04/06 07:27:56;;;;;;;9.77;6.82;;;;;;;12.52;59.95;101545.97;5004476;28;20025;-51
2023/04/06 07:30:22;;;;;;;9.85;6.45;;;;;;;12.52;60.07;101553.13;5005491;28;20407;-51
2023/04/06 07:32:48;;;;;;;10.23;6.13;;;;;;;12.51;60.13;101556.78;5005240;28;20029;-52
2023/04/06 07:35:14;;;;;;;12.27;7.07;;;;;;;12.51;60.02;101552.28;5005548;28;20475;-51
2023/04/06 07:37:40;;;;;;;9.93;7.05;;;;;;;12.51;60.02;101552.28;5005774;28;20038;-51
2023/04/06 07:40:06;;;;;;;15.43;7.68;;;;;;;12.51;59.70;101554.97;5005095;28;20121;-50
2023/04/06 07:42:32;;;;;;;9.90;6.72;;;;;;;12.52;59.88;101543.31;5004803;28;20033;-50
2023/04/06 07:44:58;;;;;;;10.32;6.78;;;;;;;12.52;59.50;101555.81;5005061;28;20041;-51
2023/04/06 07:47:23;;;;;;;10.68;7.13;;;;;;;12.53;59.78;101546.84;5005113;28;20048;-51
2023/04/06 07:49:49;;;;;;;23.77;7.30;;;;;;;12.55;59.58;101546.78;5005074;28;20112;-51
2023/04/06 07:52:15;;;;;;;11.52;7.93;;;;;;;12.54;59.58;101542.38;5004926;28;20053;-51
2023/04/06 07:54:41;;;;;;;9.98;7.72;;;;;;;12.54;59.53;101550.38;5005399;28;20058;-51
2023/04/06 07:57:07;;;;;;;9.65;7.22;;;;;;;12.55;59.54;101552.13;5005235;28;20124;-51
2023/04/06 07:59:32;;;;;;;9.80;7.30;;;;;;;12.54;59.43;101545.88;5004738;28;20038;-51
2023/04/06 08:01:57;;;;;;;9.77;7.20;;;;;;;12.54;59.64;101543.22;5004371;28;20036;-51
2023/04/06 08:04:23;;;;;;;13.00;7.47;;;;;;;12.55;59.49;101544.94;5004784;28;20038;-51
2023/04/06 08:06:48;;;;;;;11.60;7.35;;;;;;;12.53;59.45;101549.53;5009932;28;20545;-51
2023/04/06 08:09:14;;;;;;;10.25;7.78;;;;;;;12.56;59.63;101553.81;5011808;28;20038;-51
2023/04/06 08:11:40;;;;;;;12.82;7.10;;;;;;;12.56;59.54;101554.66;5008659;28;20026;-54
2023/04/06 08:14:05;;;;;;;12.00;7.55;;;;;;;12.55;59.63;101544.94;5006764;28;20085;-54
2023/04/06 08:16:31;;;;;;;12.18;7.60;;;;;;;12.56;59.55;101553.81;5010047;28;20029;-54
2023/04/06 08:18:56;;;;;;;14.27;7.65;;;;;;;12.56;59.56;101549.31;5005091;28;20124;-54
2023/04/06 08:21:22;;;;;;;15.77;8.15;;;;;;;12.56;59.65;101553.81;5005041;28;20442;-54
2023/04/06 08:23:47;;;;;;;11.77;7.43;;;;;;;12.57;59.27;101560.91;5005006;28;20128;-54
2023/04/06 08:26:13;;;;;;;16.73;9.45;;;;;;;12.56;59.24;101554.66;5005230;28;20037;-54
2023/04/06 08:28:38;;;;;;;12.10;7.53;;;;;;;12.56;59.45;101564.50;5005561;28;20056;-54
2023/04/06 08:31:07;;;;;;;11.68;8.45;;;;;;;12.56;59.70;101559.16;5004560;28;20085;-54
2023/04/06 08:33:35;;;;;;;12.23;6.95;;;;;;;12.56;59.07;101562.69;5011384;28;20022;-54
2023/04/06 08:36:07;;;;;;;15.30;8.15;;;;;;;12.56;59.24;101567.16;5007768;28;20034;-54
2023/04/06 08:38:33;;;;;;;13.38;8.18;;;;;;;12.57;58.93;101566.22;5011304;28;20041;-54
2023/04/06 08:40:58;;;;;;;13.23;7.93;;;;;;;12.56;59.03;101564.50;5011760;28;20037;-54
2023/04/06 08:43:26;;;;;;;11.82;8.00;;;;;;;12.56;58.85;101559.16;5007350;28;20034;-54
2023/04/06 08:45:51;;;;;;;15.05;8.50;;;;;;;12.56;58.82;101567.16;5004581;28;20467;-54
2023/04/06 08:48:18;;;;;;;15.75;9.32;;;;;;;12.56;58.89;101569.84;5005628;28;20026;-54
2023/04/06 08:50:44;;;;;;;12.30;8.50;;;;;;;12.56;58.86;101567.16;5011812;28;20044;-54
2023/04/06 08:53:11;;;;;;;11.13;7.90;;;;;;;12.55;59.03;101569.00;5011025;28;20053;-54
2023/04/06 08:55:38;;;;;;;13.45;8.60;;;;;;;12.56;59.22;101567.16;5006847;28;20129;-54
2023/04/06 08:58:07;;;;;;;15.35;8.52;;;;;;;12.56;59.21;101564.50;5004253;28;20026;-55
2023/04/06 09:00:33;;;;;;;10.90;8.18;;;;;;;12.56;59.12;101565.34;5004509;28;20031;-54
2023/04/06 09:02:59;;;;;;;13.02;9.15;;;;;;;12.57;59.19;101563.56;5004194;28;20391;-54
2023/04/06 09:05:25;;;;;;;15.85;8.05;;;;;;;12.56;59.02;101567.16;5004419;28;20034;-54
2023/04/06 09:07:51;;;;;;;16.27;8.45;;;;;;;12.56;58.91;101561.81;5007906;28;20442;-54
2023/04/06 09:10:17;;;;;;;18.48;8.15;;;;;;;12.57;58.60;101566.22;5002633;28;20046;-54
2023/04/06 09:12:42;;;;;;;15.68;8.98;;;;;;;12.56;58.46;101568.03;5003499;28;20031;-54
2023/04/06 09:15:21;;;;;;;14.55;8.15;;;;;;;12.57;58.43;101572.44;5003867;28;20526;-54
2023/04/06 09:17:46;;;;;;;14.15;8.15;;;;;;;12.56;58.60;101573.38;5003851;28;20026;-54
2023/04/06 09:20:12;;;;;;;16.33;8.90;;;;;;;12.57;58.80;101566.22;5004346;28;20026;-54
2023/04/06 09:22:38;;;;;;;16.13;9.32;;;;;;;12.57;58.16;101574.25;5003873;28;20038;-54
2023/04/06 09:25:05;;;;;;;13.07;9.13;;;;;;;12.57;57.91;101568.91;5003661;28;20471;-54
2023/04/06 09:27:32;;;;;;;12.13;9.02;;;;;;;12.56;58.36;101565.34;5004053;28;20360;-54
2023/04/06 09:30:13;;;;;;;14.13;9.25;;;;;;;12.58;58.52;101570.59;5003689;28;20037;-54
2023/04/06 09:32:55;;;;;;;14.60;9.18;;;;;;;12.59;58.13;101575.00;5003714;28;20380;-54
2023/04/06 09:35:21;;;;;;;11.55;8.13;;;;;;;12.58;58.20;101568.78;5003673;28;20058;-54
2023/04/06 09:37:48;;;;;;;13.55;9.02;;;;;;;12.57;58.17;101568.91;5003714;28;20034;-54
2023/04/06 09:40:14;;;;;;;14.23;8.85;;;;;;;12.58;58.43;101567.94;5000611;28;20092;-54
2023/04/06 09:42:46;;;;;;;14.32;9.18;;;;;;;12.59;58.06;101564.31;5003130;28;20468;-54
2023/04/06 09:45:12;;;;;;;14.45;9.20;;;;;;;12.57;57.80;101564.41;5003525;28;20361;-54
2023/04/06 09:47:40;;;;;;;17.95;9.88;;;;;;;12.58;57.70;101567.94;5003169;28;20023;-57
2023/04/06 09:50:07;;;;;;;15.18;9.23;;;;;;;12.58;57.87;101570.59;5009975;28;20476;-57
2023/04/06 09:52:36;;;;;;;14.30;8.43;;;;;;;12.57;57.67;101560.91;5010159;28;20057;-54
2023/04/06 09:55:04;;;;;;;13.10;9.25;;;;;;;12.58;57.51;101574.13;5010352;28;20382;-54
2023/04/06 09:57:36;;;;;;;14.68;9.05;;;;;;;12.58;57.89;101574.13;5003672;28;20426;-54
2023/04/06 10:00:11;;;;;;;12.35;8.75;;;;;;;12.58;58.03;101563.44;5004086;28;20483;-54
2023/04/06 10:02:47;;;;;;;13.00;9.23;;;;;;;12.61;57.93;101573.09;5009329;28;20116;-54
2023/04/06 10:05:30;;;;;;;18.98;10.50;;;;;;;12.59;57.72;101575.88;5004258;28;20030;-54
2023/04/06 10:07:59;;;;;;;17.08;9.70;;;;;;;12.59;57.36;101572.34;5010022;28;20042;-54
2023/04/06 10:10:25;;;;;;;14.77;9.43;;;;;;;12.59;57.43;101570.53;5003940;28;20030;-54
2023/04/06 10:12:51;;;;;;;15.25;8.85;;;;;;;12.59;57.62;101570.53;5003299;28;20045;-54
2023/04/06 10:15:18;;;;;;;11.50;8.25;;;;;;;12.59;57.78;101577.69;5003642;28;20026;-54
2023/04/06 10:17:44;;;;;;;14.30;9.07;;;;;;;12.59;57.69;101581.22;5003605;28;20494;-54
2023/04/06 10:20:15;;;;;;;12.10;8.48;;;;;;;12.58;57.70;101578.63;5006426;28;20033;-55
2023/04/06 10:22:44;;;;;;;;;;;;;;;12.71;58.04;101574.25;5003637;28;20026;-55
2023/04/06 10:25:09;;;;;;;11.98;8.43;;;;;;;12.62;57.84;101575.69;5005270;28;19910;-55
2023/04/06 10:27:35;;;;;;;14.32;8.90;;;;;;;12.61;57.85;101578.44;5007171;28;20034;-54
2023/04/06 10:30:03;;;;;;;11.73;8.05;;;;;;;12.61;58.08;101575.78;5011956;28;20105;-54
2023/04/06 10:32:32;;;;;;;14.68;8.27;;;;;;;12.60;57.90;101576.72;5010304;28;20819;-54
2023/04/06 10:35:12;;;;;;;13.07;8.98;;;;;;;12.61;57.97;101584.66;5009649;28;20064;-54
2023/04/06 10:38:04;;;;;;;13.00;8.50;;;;;;;12.64;58.38;101583.59;5006744;28;20033;-54
2023/04/06 10:40:31;;;;;;;;;;;;;;;12.73;58.33;101577.69;5006386;28;20376;-54
2023/04/06 10:43:07;;;;;;;11.05;7.70;;;;;;;12.64;58.31;101572.91;5003888;28;19914;-54
2023/04/06 10:45:33;;;;;;;11.82;7.85;;;;;;;12.61;58.17;101571.28;5011250;28;20040;-56
2023/04/06 10:47:58;;;;;;;13.23;8.40;;;;;;;12.60;57.83;101566.03;5006806;28;20041;-55
2023/04/06 10:50:24;;;;;;;13.23;8.40;;;;;;;12.61;58.25;101570.44;5006723;28;20446;-55
2023/04/06 10:53:01;;;;;;;10.45;7.22;;;;;;;12.60;57.99;101572.22;5012540;28;20057;-55
2023/04/06 10:55:28;;;;;;;12.80;8.27;;;;;;;12.60;57.73;101571.38;5005852;28;20034;-55
2023/04/06 10:57:53;;;;;;;10.70;7.15;;;;;;;12.60;58.12;101566.03;5006434;28;20029;-55
2023/04/06 11:00:20;;;;;;;11.43;7.40;;;;;;;12.59;58.37;101559.84;5006947;28;20391;-56
2023/04/06 11:02:46;;;;;;;15.75;7.30;;;;;;;12.59;58.28;101553.63;4997151;28;20120;-54
2023/04/06 11:05:12;;;;;;;9.60;6.63;;;;;;;12.58;58.33;101547.41;5006436;28;20116;-54
2023/04/06 11:07:39;;;;;;;10.88;7.05;;;;;;;12.57;58.53;101542.19;5006637;28;20357;-57
2023/04/06 11:10:05;;;;;;;8.65;6.68;;;;;;;12.58;58.35;101546.56;5020853;28;20125;-55
2023/04/06 11:12:31;;;;;;;10.90;6.55;;;;;;;12.58;58.12;101541.22;5005788;28;20486;-55
2023/04/06 11:15:06;;;;;;;9.30;6.63;;;;;;;12.58;58.31;101551.91;5005695;28;20108;-55
2023/04/06 11:17:35;;;;;;;9.48;6.03;;;;;;;12.58;58.68;101544.75;5005649;28;20030;-55
2023/04/06 11:20:02;;;;;;;9.35;6.10;;;;;;;12.58;58.35;101543.91;5005566;28;20088;-55